Elizabethtown, PA (17022)

12:42 AM EDT on September 05, 2015 (GMT -0400)
Elizabethtown, Hampden Hts | | Change Station
CLOSE
Current Station
Personal Weather Station
Location: Elizabethtown, PA
Elevation: 594 ft
Nearby Weather Stations

Elev 594 ft 40.15 °N, 76.59 °W | Updated 8 minutes ago

Partly Cloudy
Partly Cloudy
70.8 °F
Feels Like 70.8 °F
N
2.3
Wind Variable Wind from SE
Gusts 2.7 mph

Today
High -- | Low -- °F
--% Chance of Precip.
Yesterday
High -- | Low -- °F
Precip. -- in
6:37 AM 7:32 PM
Waning Gibbous, 52% visible
Pressure 30.17 in
Visibility 10.0 miles
Clouds Few 3000 ft
Few 8000 ft
Mostly Cloudy 9500 ft
Dew Point 67 °F
Humidity 87%
Rainfall 0.00 in
Snow Depth Not available.
UV 0 out of 12
Pollen 7.80 out of 12
Air Quality Not available.
Flu Activity Not available.
METAR KMDT 050356Z 13008KT 10SM FEW030 FEW080 BKN095 24/19 A3017 RMK AO2 SLP215 T02390194
Pressure 30.17 in
Visibility 10.0 miles
Clouds Few 3000 ft
Few 8000 ft
Mostly Cloudy 9500 ft
Dew Point 67 °F
Humidity 87%
Rainfall 0.00 in
Snow Depth Not available.
UV 0 out of 12
Pollen 7.80 out of 12
Air Quality Not available.
Flu Activity Not available.
METAR KMDT 050356Z 13008KT 10SM FEW030 FEW080 BKN095 24/19 A3017 RMK AO2 SLP215 T02390194

10-Day Weather Forecast

×

Almanac

Astronomy

Sep. 05, 2015 Rise Set
Actual Time
Civil Twilight
Nautical Twilight
Astronomical Twilight
Moon
Length of Visible Light
Length of Day
Tomorrow will be .
, % of the Moon is Illuminated

Today's Extremes

State Highs State Lows

Community

WunderPhotos

Upload Photos

1,852,426 photos uploaded!

WunderBlogs® & News

Nearby

Air Quality

  Air Quality AQ Index Pollutant
Not available.

Snow Depth

Station Depth Elevation

Earthquake Activity

City Distance Mag. Time & Date
Minimum magnitude displayed is 2.5.

Coastal Water Temperatures

Place Temperature

Stations

Nearby Weather Stations

Station Location Temp. Windchill Dew Point Humidity Wind Precip. Elev Updated Type